Time;durP1;ratioP1;P1;durP2;ratioP2;P2;SDS_P1;SDS_P2;PMS_P1;PMS_P2;Temp;Humidity;BMP_temperature;BMP_pressure;BME280_temperature;BME280_humidity;BME280_pressure;Samples;Min_cycle;Max_cycle;Signal;HPM_P1;HPM_P2
2021/06/11 00:00:33;;;;;;;6.15;4.50;;;17.70;67.10;21.20;94212.00;;;;10465320;28;47150;-84
2021/06/11 00:05:34;;;;;;;5.28;4.25;;;17.70;67.20;21.20;94208.00;;;;10463834;28;69329;-83
2021/06/11 00:10:35;;;;;;;6.40;5.22;;;17.70;67.10;21.10;94217.00;;;;10466261;28;47979;-84
2021/06/11 00:15:37;;;;;;;6.07;4.60;;;17.60;66.80;21.10;94203.00;;;;10467291;28;47046;-85
2021/06/11 00:20:38;;;;;;;7.00;5.15;;;17.50;66.90;21.00;94192.00;;;;10466631;28;47464;-84
2021/06/11 00:25:38;;;;;;;5.53;4.75;;;17.40;67.20;20.90;94204.00;;;;10465280;28;47027;-84
2021/06/11 00:30:40;;;;;;;5.43;4.57;;;17.30;67.40;20.80;94212.00;;;;10465034;28;74692;-85
2021/06/11 00:35:41;;;;;;;6.07;4.75;;;17.20;67.90;20.80;94197.00;;;;10466178;28;47541;-85
2021/06/11 00:40:44;;;;;;;4.03;3.60;;;17.30;67.00;20.90;94194.00;;;;10463718;28;47295;-84
2021/06/11 00:45:45;;;;;;;4.47;3.70;;;17.40;66.80;21.00;94193.00;;;;10463929;28;47450;-84
2021/06/11 00:50:46;;;;;;;5.30;3.97;;;17.50;66.90;21.00;94178.00;;;;10462063;28;47702;-84
2021/06/11 00:55:47;;;;;;;4.60;3.65;;;17.50;65.90;21.00;94188.00;;;;10462908;28;74795;-83
2021/06/11 01:00:48;;;;;;;4.63;3.47;;;17.50;66.10;21.10;94176.00;;;;10460864;28;76522;-84
2021/06/11 01:05:51;;;;;;;4.43;3.50;;;17.50;66.30;21.10;94181.00;;;;10461069;28;47097;-84
2021/06/11 01:10:52;;;;;;;5.65;3.85;;;17.50;66.00;21.00;94179.00;;;;10464255;28;47226;-83
2021/06/11 01:15:53;;;;;;;4.07;3.30;;;17.50;66.40;21.00;94184.00;;;;10467788;28;74857;-84
2021/06/11 01:20:54;;;;;;;4.15;3.35;;;17.50;65.90;20.90;94173.00;;;;10486933;28;65980;-84
2021/06/11 01:26:34;;;;;;;5.50;4.35;;;17.40;67.10;20.90;94173.00;;;;10470656;28;52787;-84
2021/06/11 01:31:45;;;;;;;6.50;4.15;;;17.30;66.80;20.70;94185.00;;;;10470060;28;47214;-84
2021/06/11 01:36:50;;;;;;;4.13;3.53;;;17.20;67.00;20.70;94164.00;;;;10468909;28;48382;-85
2021/06/11 01:41:54;;;;;;;5.20;3.90;;;17.20;67.10;20.80;94170.00;;;;10468826;28;47066;-83
2021/06/11 01:46:58;;;;;;;5.30;4.20;;;17.20;67.10;20.80;94166.00;;;;10467955;28;47990;-84
2021/06/11 01:52:04;;;;;;;5.82;3.97;;;17.20;67.10;20.70;94185.00;;;;10468548;28;51984;-85
2021/06/11 01:57:06;;;;;;;5.47;4.20;;;17.10;67.50;20.60;94173.00;;;;10485124;28;47480;-85
2021/06/11 02:02:07;;;;;;;4.35;3.88;;;17.00;68.20;20.50;94168.00;;;;10468181;28;47257;-85
2021/06/11 02:07:09;;;;;;;3.67;3.17;;;17.00;68.20;20.60;94161.00;;;;10466985;28;47616;-85
2021/06/11 02:12:11;;;;;;;3.80;3.20;;;17.00;68.20;20.60;94166.00;;;;10467018;28;46955;-85
2021/06/11 02:17:12;;;;;;;4.57;3.80;;;17.10;67.70;20.50;94155.00;;;;10468246;28;47246;-85
2021/06/11 02:22:15;;;;;;;5.28;4.00;;;17.10;67.60;20.50;94150.00;;;;10466248;28;77542;-85
2021/06/11 02:27:16;;;;;;;5.13;3.35;;;16.90;68.10;20.50;94154.00;;;;10466403;28;75654;-85
2021/06/11 02:32:16;;;;;;;3.95;3.30;;;17.00;67.90;20.50;94152.00;;;;10466572;28;48061;-85
2021/06/11 02:37:17;;;;;;;5.15;3.35;;;17.00;68.00;20.60;94140.00;;;;10465550;28;77523;-83
2021/06/11 02:42:18;;;;;;;4.82;3.25;;;17.00;67.60;20.50;94150.00;;;;10466537;28;48430;-83
2021/06/11 02:47:28;;;;;;;3.88;3.20;;;17.00;67.90;20.50;94158.00;;;;10466102;28;46924;-84
2021/06/11 02:52:32;;;;;;;5.70;3.58;;;16.90;68.10;20.50;94146.00;;;;10466835;28;50152;-84
2021/06/11 02:57:41;;;;;;;4.05;3.10;;;16.90;68.40;20.40;94159.00;;;;10467899;28;48303;-84
2021/06/11 03:02:58;;;;;;;6.05;3.88;;;16.80;69.00;20.40;94161.00;;;;10486609;28;47135;-84
2021/06/11 03:08:01;;;;;;;3.43;2.80;;;16.80;68.90;20.30;94160.00;;;;10468364;28;46895;-84
2021/06/11 03:13:03;;;;;;;5.40;3.47;;;16.70;70.10;20.30;94159.00;;;;10467431;28;47172;-84
2021/06/11 03:18:08;;;;;;;4.50;3.55;;;16.70;69.40;20.30;94157.00;;;;10466720;28;47534;-84
2021/06/11 03:23:18;;;;;;;4.40;3.33;;;16.70;69.10;20.30;94144.00;;;;10467360;28;48202;-84
2021/06/11 03:28:43;;;;;;;3.63;3.05;;;16.80;69.60;20.40;94149.00;;;;10468161;28;47315;-84
2021/06/11 03:33:47;;;;;;;6.00;3.80;;;16.70;69.70;20.20;94155.00;;;;10467431;28;47275;-84
2021/06/11 03:38:56;;;;;;;4.72;4.00;;;16.70;69.70;20.20;94154.00;;;;10468317;28;47382;-84
2021/06/11 03:43:57;;;;;;;4.80;3.25;;;16.60;70.10;20.20;94163.00;;;;10468186;28;47205;-83
2021/06/11 03:48:59;;;;;;;4.57;3.25;;;16.70;70.60;20.30;94164.00;;;;10466269;28;74660;-84
2021/06/11 03:54:07;;;;;;;3.92;3.03;;;16.70;70.20;20.40;94159.00;;;;10467652;28;47241;-84
2021/06/11 03:59:11;;;;;;;;;;;16.80;70.50;21.00;94166.00;;;;10467487;28;47139;-84
2021/06/11 04:04:11;;;;;;;5.00;3.00;;;16.90;69.60;20.70;94164.00;;;;10465647;28;48483;-84
2021/06/11 04:09:18;;;;;;;3.28;2.63;;;17.10;69.20;20.80;94177.00;;;;10480986;28;72940;-84
2021/06/11 04:14:24;;;;;;;;;;;17.10;69.20;21.40;94172.00;;;;10510517;28;52979;-86
2021/06/11 04:19:29;;;;;;;3.65;2.60;;;17.20;68.90;21.10;94178.00;;;;10480520;28;46782;-86
2021/06/11 04:24:37;;;;;;;4.22;3.20;;;17.30;68.70;21.20;94181.00;;;;10494988;28;49212;-86
2021/06/11 04:29:39;;;;;;;2.60;2.20;;;17.40;68.00;21.20;94189.00;;;;10475964;28;47264;-84
2021/06/11 04:34:40;;;;;;;4.40;3.20;;;17.50;68.80;21.40;94191.00;;;;10472857;28;48173;-84
2021/06/11 04:39:41;;;;;;;5.03;3.30;;;17.70;68.20;21.50;94195.00;;;;10471525;28;75455;-85
2021/06/11 04:44:41;;;;;;;5.05;3.28;;;17.70;67.80;21.60;94179.00;;;;10470727;28;73819;-85
2021/06/11 04:49:42;;;;;;;3.60;2.90;;;17.80;68.10;21.70;94191.00;;;;10472955;28;50606;-85
2021/06/11 04:54:43;;;;;;;4.35;3.00;;;17.90;68.10;21.90;94190.00;;;;10471271;28;47173;-85
2021/06/11 04:59:43;;;;;;;2.60;2.17;;;18.00;67.60;22.50;94195.00;;;;10470938;28;75338;-84
2021/06/11 05:04:44;;;;;;;3.90;2.42;;;18.50;67.20;23.40;94189.00;;;;10492368;28;75347;-84
2021/06/11 05:09:45;;;;;;;2.20;1.92;;;19.60;64.40;24.40;94192.00;;;;10493062;28;74341;-85
2021/06/11 05:14:46;;;;;;;2.75;2.05;;;20.20;62.30;25.40;94203.00;;;;10470171;28;70981;-85
2021/06/11 05:19:47;;;;;;;3.17;1.95;;;20.60;61.20;25.90;94217.00;;;;10444496;28;75820;-85
2021/06/11 05:24:52;;;;;;;2.53;2.08;;;21.40;59.90;26.70;94206.00;;;;10441046;28;69807;-84
2021/06/11 05:29:53;;;;;;;2.00;1.80;;;21.70;58.30;29.00;94201.00;;;;10441180;28;74879;-85
2021/06/11 05:34:53;;;;;;;1.90;1.70;;;23.00;55.80;30.90;94219.00;;;;10442073;28;75145;-86
2021/06/11 05:39:54;;;;;;;2.10;1.85;;;24.80;51.00;30.80;94225.00;;;;10442253;28;74801;-86
2021/06/11 05:44:55;;;;;;;2.90;2.60;;;25.20;48.50;30.30;94223.00;;;;10443091;28;75437;-85
2021/06/11 05:49:55;;;;;;;3.00;2.50;;;25.20;48.10;30.40;94229.00;;;;10460337;28;46956;-86
2021/06/11 05:54:56;;;;;;;3.45;2.33;;;24.90;48.10;30.00;94228.00;;;;10471857;28;64563;-85
2021/06/11 05:59:57;;;;;;;3.50;2.47;;;24.30;51.50;31.20;94228.00;;;;10462738;28;75277;-85
2021/06/11 06:04:58;;;;;;;3.08;2.45;;;25.30;51.10;31.50;94237.00;;;;10456357;28;48144;-86
2021/06/11 06:09:58;;;;;;;3.60;2.60;;;25.60;49.60;30.50;94242.00;;;;10456542;28;66885;-86
2021/06/11 06:14:59;;;;;;;2.72;2.28;;;24.50;51.50;29.30;94248.00;;;;10450788;28;47506;-86
2021/06/11 06:20:03;;;;;;;3.20;2.78;;;23.80;51.60;28.50;94247.00;;;;10452614;28;47588;-86
2021/06/11 06:25:05;;;;;;;3.03;2.60;;;23.20;53.00;28.60;94247.00;;;;10452272;28;47454;-86
2021/06/11 06:30:09;;;;;;;4.68;2.75;;;23.40;52.80;29.80;94241.00;;;;10448758;28;47547;-86
2021/06/11 06:35:12;;;;;;;3.38;2.97;;;24.50;52.60;34.60;94215.00;;;;10446611;28;47715;-86
2021/06/11 06:40:13;;;;;;;2.40;2.00;;;27.60;47.10;41.20;94225.00;;;;10446164;28;48165;-86
2021/06/11 06:45:19;;;;;;;3.83;2.00;;;31.90;37.10;44.90;94224.00;;;;10447489;28;47089;-86
2021/06/11 06:50:22;;;;;;;2.38;2.08;;;34.80;28.10;48.10;94227.00;;;;10445753;28;48354;-86
2021/06/11 06:55:23;;;;;;;2.05;1.73;;;37.70;26.10;50.20;94222.00;;;;10444756;28;47408;-87
2021/06/11 07:00:24;;;;;;;2.60;2.00;;;39.10;23.10;51.20;94231.00;;;;10445457;28;75250;-87
2021/06/11 07:05:25;;;;;;;2.50;1.90;;;39.70;23.00;52.90;94235.00;;;;10450407;28;45359;-87
2021/06/11 07:10:26;;;;;;;2.03;1.73;;;41.60;21.80;54.10;94233.00;;;;10433406;28;50256;-87
2021/06/11 07:15:26;;;;;;;1.90;1.80;;;41.80;21.30;55.40;94239.00;;;;10449725;28;47432;-87
2021/06/11 07:20:27;;;;;;;1.95;1.75;;;43.30;19.70;55.50;94237.00;;;;10448543;28;57406;-87
2021/06/11 07:25:28;;;;;;;3.08;2.58;;;43.30;20.10;55.50;94240.00;;;;10449359;28;72781;-85
2021/06/11 07:30:29;;;;;;;2.30;2.00;;;42.90;19.60;55.30;94239.00;;;;10450787;28;47356;-85
2021/06/11 07:35:30;;;;;;;2.20;1.80;;;42.60;19.80;56.30;94248.00;;;;10449979;28;47006;-85
2021/06/11 07:40:31;;;;;;;2.63;2.00;;;44.30;19.50;56.70;94244.00;;;;10449711;28;46101;-86
2021/06/11 07:45:32;;;;;;;3.00;2.20;;;44.30;19.30;57.00;94248.00;;;;10448839;28;47672;-85
2021/06/11 07:50:33;;;;;;;2.40;2.20;;;44.80;19.40;56.80;94251.00;;;;10446031;28;47079;-84
2021/06/11 07:55:34;;;;;;;3.08;2.42;;;45.00;19.10;57.30;94243.00;;;;10447150;28;47249;-85
2021/06/11 08:00:35;;;;;;;3.38;3.05;;;45.10;19.00;57.30;94249.00;;;;10447698;28;47886;-85
2021/06/11 08:05:39;;;;;;;3.35;2.42;;;46.00;18.30;57.70;94248.00;;;;10445164;28;74718;-83
2021/06/11 08:10:39;;;;;;;5.15;3.00;;;45.40;18.30;57.70;94249.00;;;;10445781;28;47226;-83
2021/06/11 08:15:40;;;;;;;3.58;2.40;;;45.40;18.60;57.70;94255.00;;;;10443795;28;47546;-83
2021/06/11 08:20:41;;;;;;;3.67;2.90;;;44.70;18.30;57.60;94253.00;;;;10441777;28;68128;-82
2021/06/11 08:25:41;;;;;;;3.95;2.40;;;44.60;18.00;58.00;94254.00;;;;10442699;28;47092;-84
2021/06/11 08:30:42;;;;;;;4.05;2.97;;;44.40;18.60;57.50;94254.00;;;;10440092;28;74490;-84
2021/06/11 08:35:43;;;;;;;3.65;2.97;;;43.90;19.50;56.80;94253.00;;;;10439856;28;57835;-84
2021/06/11 08:40:44;;;;;;;3.05;2.75;;;43.40;19.20;56.20;94264.00;;;;10439442;28;48516;-83
2021/06/11 08:45:45;;;;;;;3.28;2.25;;;42.70;20.20;55.40;94270.00;;;;10441656;28;47550;-84
2021/06/11 08:50:46;;;;;;;6.18;3.80;;;41.90;20.60;55.50;94274.00;;;;10440893;28;48619;-84
2021/06/11 08:55:47;;;;;;;5.20;3.55;;;40.60;21.10;55.60;94282.00;;;;10440532;28;77925;-84
2021/06/11 09:00:48;;;;;;;4.40;2.78;;;40.00;23.10;54.60;94285.00;;;;10440819;28;56189;-84
2021/06/11 09:05:55;;;;;;;4.90;3.58;;;38.20;25.30;50.80;94324.00;;;;10440129;28;74369;-84
2021/06/11 09:11:24;;;;;;;4.85;3.40;;;36.10;27.00;45.10;94312.00;;;;10458042;28;46968;-84
2021/06/11 09:16:27;;;;;;;2.92;2.63;;;33.60;31.00;42.80;94313.00;;;;10440434;28;48236;-85
2021/06/11 09:21:42;;;;;;;4.10;3.30;;;33.60;32.40;39.70;94319.00;;;;10437891;28;47554;-83
2021/06/11 09:27:05;;;;;;;4.82;3.90;;;32.40;31.60;38.10;94320.00;;;;10438373;28;47129;-83
2021/06/11 09:32:22;;;;;;;6.32;4.13;;;31.80;33.40;36.30;94315.00;;;;10440259;28;47266;-83
2021/06/11 09:37:30;;;;;;;5.28;3.33;;;30.30;35.00;35.40;94315.00;;;;10444711;28;47561;-82
2021/06/11 09:42:34;;;;;;;5.88;3.80;;;30.10;37.50;35.10;94301.00;;;;10444581;28;47253;-83
2021/06/11 09:47:45;;;;;;;4.40;4.00;;;30.20;34.60;35.10;94299.00;;;;10445133;28;46965;-83
2021/06/11 09:52:52;;;;;;;5.57;4.43;;;30.20;36.20;34.20;94304.00;;;;10444722;28;48562;-85
2021/06/11 09:58:42;;;;;;;5.38;3.42;;;29.20;37.00;33.90;94304.00;;;;10460729;28;47437;-86
2021/06/11 10:03:49;;;;;;;6.35;3.90;;;29.10;38.80;33.60;94297.00;;;;10444041;28;46373;-86
2021/06/11 10:08:51;;;;;;;4.70;4.03;;;29.00;41.20;33.60;94287.00;;;;10444116;28;47336;-86
2021/06/11 10:13:55;;;;;;;6.90;4.70;;;29.20;38.70;33.60;94295.00;;;;10443040;28;47009;-86
2021/06/11 10:18:56;;;;;;;6.05;5.28;;;28.90;39.70;33.30;94290.00;;;;10442589;28;51935;-84
2021/06/11 10:23:57;;;;;;;4.75;4.13;;;28.70;39.20;33.10;94289.00;;;;10441977;28;77310;-84
2021/06/11 10:28:58;;;;;;;4.82;4.35;;;28.70;39.80;33.60;94288.00;;;;10442192;28;75717;-84
2021/06/11 10:34:03;;;;;;;5.90;4.30;;;29.40;39.50;33.10;94276.00;;;;10441920;28;71334;-85
2021/06/11 10:39:10;;;;;;;5.00;4.50;;;28.60;37.70;32.70;94286.00;;;;10443395;28;47384;-85
2021/06/11 10:44:42;;;;;;;5.68;4.80;;;28.20;40.00;32.50;94274.00;;;;10458956;28;47070;-86
2021/06/11 10:49:55;;;;;;;5.47;3.92;;;28.10;39.50;32.40;94279.00;;;;10441406;28;48048;-86
2021/06/11 10:55:16;;;;;;;4.28;3.88;;;28.10;41.60;32.40;94272.00;;;;10458809;28;48100;-85
2021/06/11 11:00:23;;;;;;;6.95;4.78;;;28.20;39.40;31.90;94267.00;;;;10433879;28;47697;-86
2021/06/11 11:05:41;;;;;;;4.80;4.30;;;27.60;39.30;32.10;94269.00;;;;10457966;28;47398;-85
2021/06/11 11:10:48;;;;;;;5.40;4.20;;;27.80;39.60;31.70;94258.00;;;;10441339;28;48292;-85
2021/06/11 11:15:52;;;;;;;4.60;3.95;;;27.40;37.90;31.60;94234.00;;;;10451805;28;48295;-84
2021/06/11 11:20:53;;;;;;;4.00;3.55;;;27.30;38.40;31.90;94250.00;;;;10484482;28;47282;-84
2021/06/11 11:25:54;;;;;;;5.45;3.75;;;27.70;41.40;32.20;94244.00;;;;10478236;28;74120;-86
2021/06/11 11:30:55;;;;;;;5.43;3.63;;;28.10;40.60;32.30;94247.00;;;;10453421;28;47053;-86
2021/06/11 11:35:57;;;;;;;4.30;3.90;;;28.20;35.60;32.30;94250.00;;;;10450317;28;74469;-85
2021/06/11 11:40:57;;;;;;;4.32;3.55;;;28.10;37.70;32.40;94250.00;;;;10449129;28;47240;-85
2021/06/11 11:45:58;;;;;;;4.80;3.78;;;28.10;38.60;32.20;94245.00;;;;10445126;28;74155;-85
2021/06/11 11:50:59;;;;;;;3.75;3.40;;;27.90;36.00;31.40;94242.00;;;;10447128;28;74749;-86
